createdAt,value
2022-11-14T00:05:10.978Z,35.63
2022-11-14T00:10:34.529Z,37.70
2022-11-14T00:15:57.804Z,33.33
2022-11-14T00:21:21.178Z,38.23
2022-11-14T00:26:44.829Z,41.23
2022-11-14T00:32:08.630Z,39.90
2022-11-14T00:37:32.268Z,41.07
2022-11-14T00:42:55.949Z,42.93
2022-11-14T00:48:19.724Z,45.07
2022-11-14T00:53:43.109Z,49.57
2022-11-14T00:59:06.604Z,46.13
2022-11-14T01:04:30.092Z,45.50
2022-11-14T01:09:53.341Z,52.07
2022-11-14T01:15:16.694Z,50.77
2022-11-14T01:20:41.933Z,50.53
2022-11-14T01:26:08.436Z,55.63
2022-11-14T01:31:32.058Z,50.43
2022-11-14T01:36:55.534Z,55.83
2022-11-14T01:42:21.944Z,53.30
2022-11-14T01:47:44.275Z,51.13
2022-11-14T01:53:07.911Z,40.47
2022-11-14T01:58:33.080Z,50.23
2022-11-14T02:03:58.229Z,40.47
2022-11-14T02:09:22.120Z,37.37
2022-11-14T02:14:48.193Z,37.13
2022-11-14T02:20:14.900Z,40.10
2022-11-14T02:25:39.282Z,43.13
2022-11-14T02:31:03.328Z,36.60
2022-11-14T02:36:27.137Z,40.40
2022-11-14T02:41:52.356Z,38.23
2022-11-14T02:47:15.845Z,44.80
2022-11-14T02:52:39.846Z,42.53
2022-11-14T02:58:04.773Z,40.90
2022-11-14T03:03:28.084Z,41.77
2022-11-14T03:08:51.621Z,41.57
2022-11-14T03:14:15.205Z,41.67
2022-11-14T03:19:38.959Z,40.60
2022-11-14T03:25:03.519Z,40.13
2022-11-14T03:30:27.102Z,43.67
2022-11-14T03:35:54.882Z,42.20
2022-11-14T03:41:18.647Z,40.33
2022-11-14T03:46:42.478Z,39.20
2022-11-14T03:52:06.136Z,41.63
2022-11-14T03:57:29.408Z,49.67
2022-11-14T04:02:52.747Z,41.23
2022-11-14T04:08:16.125Z,41.27
2022-11-14T04:13:39.599Z,40.83
2022-11-14T04:19:03.380Z,46.37
2022-11-14T04:24:26.923Z,44.80
2022-11-14T04:29:50.394Z,44.23
2022-11-14T04:35:13.538Z,45.57
2022-11-14T04:40:37.108Z,48.57
2022-11-14T04:46:00.411Z,51.13
2022-11-14T04:51:23.750Z,55.97
2022-11-14T04:56:47.441Z,51.63
2022-11-14T05:02:11.285Z,52.00
2022-11-14T05:07:34.772Z,49.63
2022-11-14T05:12:58.407Z,49.57
2022-11-14T05:18:22.154Z,45.90
2022-11-14T05:23:45.774Z,52.20
2022-11-14T05:29:09.267Z,47.87
2022-11-14T05:34:32.677Z,47.67
2022-11-14T05:39:56.272Z,51.37
2022-11-14T05:45:20.108Z,53.50
2022-11-14T05:50:43.410Z,52.53
2022-11-14T05:56:09.762Z,50.77
2022-11-14T06:01:33.731Z,48.40
2022-11-14T06:06:57.183Z,52.40
2022-11-14T06:12:20.412Z,46.83
2022-11-14T06:17:44.372Z,51.00
2022-11-14T06:23:08.898Z,54.80
2022-11-14T06:28:32.911Z,51.30
2022-11-14T06:33:57.145Z,51.90
2022-11-14T06:39:20.901Z,50.57
2022-11-14T06:44:44.249Z,53.17
2022-11-14T06:50:10.422Z,48.30
2022-11-14T06:55:33.775Z,48.17
2022-11-14T07:00:57.879Z,48.07
2022-11-14T07:06:24.179Z,39.53
2022-11-14T07:11:47.796Z,50.33
2022-11-14T07:17:11.273Z,51.27
2022-11-14T07:22:34.793Z,54.90
2022-11-14T07:27:59.564Z,48.73
2022-11-14T07:33:22.800Z,46.33
2022-11-14T07:38:46.468Z,46.13
2022-11-14T07:44:11.008Z,46.13
2022-11-14T07:49:35.213Z,42.83
2022-11-14T07:54:58.702Z,49.77
2022-11-14T08:00:22.922Z,48.83
2022-11-14T08:05:46.584Z,47.23
2022-11-14T08:11:10.678Z,46.83
2022-11-14T08:16:34.674Z,50.43
2022-11-14T08:21:58.288Z,47.43
2022-11-14T08:27:21.776Z,46.73
2022-11-14T08:32:45.418Z,49.73
2022-11-14T08:38:08.796Z,52.07
2022-11-14T08:43:33.441Z,46.30
2022-11-14T08:48:58.473Z,45.17
2022-11-14T08:54:22.207Z,45.43
2022-11-14T08:59:45.941Z,49.23
2022-11-14T09:05:10.705Z,47.83
2022-11-14T09:10:34.506Z,44.43
2022-11-14T09:15:58.251Z,46.30
2022-11-14T09:21:21.641Z,45.17
2022-11-14T09:26:45.001Z,45.83
2022-11-14T09:32:09.573Z,44.97
2022-11-14T09:37:33.054Z,43.27
2022-11-14T09:43:05.753Z,48.77
2022-11-14T09:48:32.442Z,45.70
2022-11-14T09:54:21.574Z,41.10
2022-11-14T09:59:45.632Z,47.10
2022-11-14T10:05:33.118Z,45.00
2022-11-14T10:11:10.193Z,43.63
2022-11-14T10:16:36.648Z,43.57
2022-11-14T10:22:06.128Z,45.27
2022-11-14T10:27:32.965Z,47.80
2022-11-14T10:33:17.389Z,38.40
2022-11-14T10:38:44.353Z,51.60
2022-11-14T10:44:13.310Z,47.13
2022-11-14T10:49:39.221Z,44.90
2022-11-14T10:55:08.245Z,46.70
2022-11-14T11:00:32.085Z,38.13
2022-11-14T11:05:58.408Z,40.70
2022-11-14T11:11:30.511Z,38.30
2022-11-14T11:17:17.010Z,39.47
2022-11-14T11:22:40.523Z,48.50
2022-11-14T11:28:18.567Z,48.37
2022-11-14T11:33:43.095Z,41.40
2022-11-14T11:39:06.749Z,41.13
2022-11-14T11:44:39.206Z,42.50
2022-11-14T11:50:04.208Z,45.50
2022-11-14T11:55:30.604Z,47.87
2022-11-14T12:00:57.267Z,44.43
2022-11-14T12:06:25.987Z,39.83
2022-11-14T12:11:52.387Z,44.00
2022-11-14T12:17:50.510Z,35.97
2022-11-14T12:23:26.258Z,40.50
2022-11-14T12:29:10.963Z,36.07
2022-11-14T12:34:37.378Z,31.63
2022-11-14T12:40:03.944Z,32.60
2022-11-14T12:45:45.749Z,35.30
2022-11-14T12:51:30.913Z,36.20
2022-11-14T12:57:00.683Z,33.57
2022-11-14T13:02:51.122Z,35.90
2022-11-14T13:08:37.240Z,38.27
2022-11-14T13:14:20.737Z,32.47
2022-11-14T13:20:05.930Z,33.33
2022-11-14T13:25:29.589Z,36.47
2022-11-14T13:31:18.882Z,35.00
2022-11-14T13:36:57.242Z,33.20
2022-11-14T13:42:42.828Z,37.47
2022-11-14T13:48:28.914Z,39.63
2022-11-14T13:53:53.009Z,39.10
2022-11-14T13:59:53.419Z,42.33
2022-11-14T14:05:41.235Z,38.43
2022-11-14T14:11:38.922Z,34.83
2022-11-14T14:17:12.571Z,38.90
2022-11-14T14:22:45.257Z,37.90
2022-11-14T14:28:14.551Z,40.57
2022-11-14T14:33:43.010Z,39.57
2022-11-14T14:39:21.259Z,37.77
2022-11-14T14:44:46.892Z,39.33
2022-11-14T14:50:24.741Z,38.47
2022-11-14T14:56:00.357Z,39.33
2022-11-14T15:01:27.953Z,41.43
2022-11-14T15:06:51.621Z,34.90
2022-11-14T15:12:15.345Z,45.10
2022-11-14T15:17:39.225Z,38.50
2022-11-14T15:23:09.000Z,42.10
2022-11-14T15:28:33.216Z,37.73
2022-11-14T15:34:05.906Z,46.10
2022-11-14T15:39:29.919Z,41.40
2022-11-14T15:44:53.898Z,47.50
2022-11-14T15:50:20.537Z,48.47
2022-11-14T15:55:44.047Z,40.87
2022-11-14T16:01:14.232Z,41.40
2022-11-14T16:06:37.741Z,43.23
2022-11-14T16:12:01.354Z,47.07
2022-11-14T16:17:25.016Z,47.43
2022-11-14T16:22:50.165Z,40.77
2022-11-14T16:28:13.725Z,46.70
2022-11-14T16:33:37.295Z,42.43
2022-11-14T16:39:03.476Z,46.63
2022-11-14T16:44:27.238Z,45.20
2022-11-14T16:49:51.016Z,49.23
2022-11-14T16:55:14.738Z,50.13
2022-11-14T17:00:38.428Z,46.23
2022-11-14T17:06:02.116Z,46.63
2022-11-14T17:11:29.636Z,45.73
2022-11-14T17:16:53.078Z,50.83
2022-11-14T17:22:20.008Z,49.93
2022-11-14T17:27:43.296Z,51.60
2022-11-14T17:33:07.196Z,51.23
2022-11-14T17:38:35.568Z,46.10
2022-11-14T17:44:00.565Z,46.17
2022-11-14T17:49:24.203Z,50.30
2022-11-14T17:54:47.805Z,47.10
2022-11-14T18:00:12.004Z,49.27
2022-11-14T18:05:35.713Z,49.73
2022-11-14T18:11:04.162Z,57.20
2022-11-14T18:16:44.415Z,57.20
2022-11-14T18:21:54.190Z,51.37
2022-11-14T18:27:17.655Z,51.33
2022-11-14T18:32:41.307Z,55.45
2022-11-14T18:38:04.919Z,51.07
2022-11-14T18:43:30.624Z,48.03
2022-11-14T18:48:57.416Z,53.07
2022-11-14T18:54:22.090Z,58.57
2022-11-14T18:59:47.463Z,56.80
2022-11-14T19:05:11.060Z,61.07
2022-11-14T19:10:34.823Z,56.80
2022-11-14T19:16:06.350Z,50.83
2022-11-14T19:21:30.461Z,50.03
2022-11-14T19:26:54.068Z,54.13
2022-11-14T19:32:17.698Z,53.90
2022-11-14T19:37:41.275Z,52.77
2022-11-14T19:43:06.436Z,54.53
2022-11-14T19:48:29.880Z,53.10
2022-11-14T19:53:54.038Z,52.47
2022-11-14T19:59:22.939Z,53.53
2022-11-14T20:04:43.713Z,54.13
2022-11-14T20:10:08.222Z,56.63
2022-11-14T20:15:31.757Z,50.30
2022-11-14T20:20:56.889Z,50.73
2022-11-14T20:26:20.798Z,50.13
2022-11-14T20:31:44.445Z,54.53
2022-11-14T20:37:12.034Z,53.07
2022-11-14T20:42:32.975Z,50.17
2022-11-14T20:47:56.590Z,46.17
2022-11-14T20:53:20.348Z,50.73
2022-11-14T20:58:44.794Z,49.47
2022-11-14T21:04:08.962Z,53.37
2022-11-14T21:09:32.264Z,49.47
2022-11-14T21:14:55.827Z,55.50
2022-11-14T21:20:19.300Z,51.07
2022-11-14T21:25:43.001Z,48.27
2022-11-14T21:31:21.551Z,53.43
2022-11-14T21:36:47.081Z,49.93
2022-11-14T21:42:14.268Z,50.20
2022-11-14T21:47:36.085Z,50.37
2022-11-14T21:52:59.307Z,53.50
2022-11-14T21:58:22.893Z,56.80
2022-11-14T22:04:05.022Z,54.63
2022-11-14T22:09:29.412Z,57.43
2022-11-14T22:14:53.924Z,55.57
2022-11-14T22:20:17.387Z,59.77
2022-11-14T22:25:41.151Z,66.27
2022-11-14T22:31:13.819Z,61.27
2022-11-14T22:36:37.489Z,62.70
2022-11-14T22:42:01.086Z,60.97
2022-11-14T22:47:24.508Z,59.90
2022-11-14T22:52:48.086Z,57.20
2022-11-14T22:58:11.730Z,51.17
2022-11-14T23:03:35.479Z,55.93
2022-11-14T23:08:59.761Z,50.53
2022-11-14T23:14:23.286Z,55.00
2022-11-14T23:19:47.072Z,52.70
2022-11-14T23:25:10.932Z,49.40
2022-11-14T23:30:36.253Z,49.73
2022-11-14T23:35:59.655Z,50.07
2022-11-14T23:41:26.834Z,48.27
2022-11-14T23:46:49.988Z,43.53
2022-11-14T23:52:13.281Z,47.03
2022-11-14T23:57:36.604Z,46.17
